Temp: 22.0°C   Baro: 1020.8mb
  Wind: 0.9mph   Dir: W (267°)
  Rain: 0.0mm (0.0mm/hr)
  Solar: 81W/m2  Hum: 77%
 
Bath Spa Weather Historical Data
Daily Summary for July 12, 2019 Units:  English    Metric   Both
Next Day »
Daily Weekly Monthly Yearly Custom
  High: Low: Average:
Temperature: 75.4 °F 60.3 °F 66.7 °F
Dew Point: 59.7 °F 52.7 °F 57.2 °F
Humidity: 93% 52% 73%
Wind Speed: 15mph 0mph 3.9mph
Wind Gust: 15mph - -
Wind direction- - West
Pressure: 30.2 in 29.9 in -
Precipitation: 0.02 in    
Historical Graphs
 
 
Tabular Data for July 12, 2019
Time Temperature Dew Point Pressure Wind direction Wind Speed Wind Gust Humidity Rainfall Rate (Hourly) solar
00:04 62.2 °F 57 °F 29.9 in WNW 2.9 mph 7 mph 83% 0 in 0.00 W/m2
00:09 62.2 °F 57 °F 29.9 in WNW 2 mph 7 mph 83% 0 in 0.00 W/m2
00:14 62.2 °F 57.4 °F 29.9 in WNW 2 mph 4 mph 84% 0 in 0.00 W/m2
00:19 62.2 °F 57.4 °F 29.9 in WNW 2 mph 2 mph 84% 0 in 0.00 W/m2
00:24 62.2 °F 57.4 °F 29.9 in WNW 2 mph 5 mph 84% 0 in 0.00 W/m2
00:29 62.1 °F 57.2 °F 29.9 in WNW 2 mph 5 mph 84% 0 in 0.00 W/m2
00:34 62.1 °F 57.2 °F 29.9 in West 0.9 mph 7 mph 84% 0 in 0.00 W/m2
00:39 61.9 °F 57.4 °F 29.9 in West 4 mph 6 mph 85% 0 in 0.00 W/m2
00:44 61.7 °F 57.2 °F 29.9 in WSW 6 mph 6 mph 85% 0 in 0.00 W/m2
00:49 61.7 °F 57.2 °F 29.9 in West 4 mph 6 mph 85% 0 in 0.00 W/m2
00:54 61.7 °F 57.4 °F 29.9 in WNW 2.9 mph 7 mph 86% 0 in 0.00 W/m2
00:59 61.7 °F 57.4 °F 29.9 in West 0.9 mph 4 mph 86% 0 in 0.00 W/m2
01:04 61.7 °F 57.4 °F 29.9 in WNW 0.9 mph 4 mph 86% 0 in 0.00 W/m2
01:09 61.7 °F 57.4 °F 29.9 in West 6 mph 6 mph 86% 0 in 0.00 W/m2
01:14 61.9 °F 57.6 °F 29.9 in WSW 8.1 mph 8 mph 86% 0 in 0.00 W/m2
01:19 62.1 °F 57.7 °F 29.9 in West 2 mph 7 mph 86% 0 in 0.00 W/m2
01:24 62.1 °F 57.7 °F 29.9 in West 6 mph 6 mph 86% 0 in 0.00 W/m2
01:29 62.1 °F 57.7 °F 29.9 in West 4 mph 5 mph 86% 0 in 0.00 W/m2
01:34 62.1 °F 57.7 °F 29.9 in West 2.9 mph 7 mph 86% 0 in 0.00 W/m2
01:39 62.1 °F 57.7 °F 29.9 in West 4.9 mph 6 mph 86% 0 in 0.00 W/m2
01:44 62.1 °F 58.1 °F 29.9 in West 2 mph 4 mph 87% 0 in 0.00 W/m2
01:49 62.1 °F 58.1 °F 29.9 in West 4 mph 4 mph 87% 0 in 0.00 W/m2
01:54 62.1 °F 58.1 °F 29.9 in West 4.9 mph 6 mph 87% 0 in 0.00 W/m2
01:59 62.1 °F 58.1 °F 29.9 in West 2.9 mph 7 mph 87% 0 in 0.00 W/m2
02:04 62.1 °F 58.1 °F 29.9 in West 2 mph 5 mph 87% 0 in 0.00 W/m2
02:09 62.1 °F 58.1 °F 29.9 in WNW 0.9 mph 5 mph 87% 0 in 0.00 W/m2
02:14 62.1 °F 58.1 °F 29.9 in West 4.9 mph 6 mph 87% 0 in 0.00 W/m2
02:19 62.2 °F 58.3 °F 29.9 in West 2.9 mph 6 mph 87% 0 in 0.00 W/m2
02:24 62.2 °F 58.3 °F 29.9 in West 2.9 mph 5 mph 87% 0 in 0.00 W/m2
02:29 62.1 °F 58.1 °F 29.9 in West 2 mph 6 mph 87% 0 in 0.00 W/m2
02:34 62.2 °F 58.6 °F 29.9 in West 4 mph 5 mph 88% 0 in 0.00 W/m2
02:39 62.1 °F 58.5 °F 29.9 in WNW 4 mph 6 mph 88% 0.01 in 0.00 W/m2
02:44 62.1 °F 58.8 °F 29.9 in WNW 6.9 mph 7 mph 89% 0.02 in 0.00 W/m2
02:49 61.7 °F 58.5 °F 29.9 in WNW 0.9 mph 4 mph 89% 0.02 in 0.00 W/m2
02:54 61.7 °F 58.5 °F 29.9 in West 2.9 mph 6 mph 89% 0.02 in 0.00 W/m2
02:59 61.5 °F 58.6 °F 29.9 in West 4.9 mph 5 mph 90% 0.02 in 0.00 W/m2
03:04 61.5 °F 58.6 °F 29.9 in West 2 mph 4 mph 90% 0.02 in 0.00 W/m2
03:09 61.3 °F 58.6 °F 29.9 in WNW 2 mph 4 mph 91% 0.02 in 0.00 W/m2
03:14 61.3 °F 58.6 °F 29.9 in WNW 0.9 mph 4 mph 91% 0.02 in 0.00 W/m2
03:19 61.3 °F 58.6 °F 29.9 in WNW 0.9 mph 3 mph 91% 0.02 in 0.00 W/m2
03:24 61.3 °F 58.6 °F 29.9 in Calm   3 mph 91% 0.02 in 0.00 W/m2
03:29 61.3 °F 58.6 °F 29.9 in WNW 0.9 mph 3 mph 91% 0.02 in 0.00 W/m2
03:34 61.3 °F 58.6 °F 29.9 in Calm   3 mph 91% 0.02 in 0.00 W/m2
03:39 61.3 °F 59 °F 29.9 in WNW 2 mph 3 mph 92% 0 in 0.00 W/m2
03:44 61.2 °F 58.8 °F 29.9 in Calm   2 mph 92% 0 in 0.00 W/m2
03:49 61.2 °F 58.8 °F 29.9 in Calm     92% 0 in 0.00 W/m2
03:54 61.3 °F 59 °F 29.9 in Calm     92% 0 in 0.00 W/m2
03:59 61.3 °F 59 °F 29.9 in WNW 2.9 mph 3 mph 92% 0 in 0.00 W/m2
04:04 61.3 °F 59 °F 29.9 in WNW 0.9 mph 3 mph 92% 0 in 0.00 W/m2
04:09 61.3 °F 59 °F 29.9 in WNW 2 mph 4 mph 92% 0 in 0.00 W/m2
04:14 61.2 °F 58.8 °F 29.9 in West 5 mph 5 mph 92% 0 in 0.00 W/m2
04:19 61.2 °F 58.8 °F 29.9 in West 2.9 mph 4 mph 92% 0 in 0.00 W/m2
04:24 61.2 °F 59.2 °F 29.9 in Calm   1 mph 93% 0 in 0.00 W/m2
04:29 61.2 °F 59.2 °F 29.9 in West 4 mph 4 mph 93% 0 in 0.00 W/m2
04:34 61 °F 59 °F 29.9 in West 2 mph 4 mph 93% 0 in 0.00 W/m2
04:39 60.8 °F 58.8 °F 29.9 in West 2.9 mph 4 mph 93% 0 in 0.00 W/m2
04:44 60.8 °F 58.8 °F 29.9 in West 2 mph 3 mph 93% 0 in 0.00 W/m2
04:49 60.8 °F 58.8 °F 29.9 in West 0.9 mph 2 mph 93% 0 in 0.00 W/m2
04:54 60.8 °F 58.8 °F 29.9 in Calm   2 mph 93% 0 in 0.00 W/m2
04:59 60.8 °F 58.8 °F 29.9 in West 0.9 mph 2 mph 93% 0 in 0.00 W/m2
05:04 60.8 °F 58.8 °F 29.9 in West 2 mph 2 mph 93% 0 in 0.00 W/m2
05:09 60.8 °F 58.8 °F 29.9 in Calm   4 mph 93% 0 in 0.00 W/m2
05:14 60.6 °F 58.6 °F 29.9 in West 0.9 mph 3 mph 93% 0 in 5.00 W/m2
05:19 60.6 °F 58.6 °F 29.9 in West 0.9 mph 2 mph 93% 0 in 7.00 W/m2
05:24 60.6 °F 58.6 °F 29.9 in Calm   6 mph 93% 0 in 7.00 W/m2
05:29 60.6 °F 58.6 °F 29.9 in West 4 mph 4 mph 93% 0 in 9.00 W/m2
05:34 60.6 °F 58.6 °F 29.9 in West 2 mph 3 mph 93% 0 in 7.00 W/m2
05:39 60.6 °F 58.6 °F 29.9 in West 0.9 mph 4 mph 93% 0 in 9.00 W/m2
05:44 60.6 °F 58.6 °F 29.9 in West 2 mph 3 mph 93% 0 in 9.00 W/m2
05:49 60.6 °F 58.6 °F 29.9 in West 5 mph 5 mph 93% 0 in 11.00 W/m2
05:54 60.4 °F 58.5 °F 29.9 in West 2 mph 4 mph 93% 0 in 11.00 W/m2
05:59 60.4 °F 58.5 °F 29.9 in West 2.9 mph 6 mph 93% 0 in 21.00 W/m2
06:04 60.4 °F 58.5 °F 29.9 in WSW 6.9 mph 7 mph 93% 0 in 25.00 W/m2
06:09 60.6 °F 58.6 °F 29.9 in Calm   4 mph 93% 0 in 28.00 W/m2
06:14 60.6 °F 58.6 °F 29.9 in WSW 4.9 mph 5 mph 93% 0 in 28.00 W/m2
06:19 60.6 °F 58.6 °F 29.9 in WNW 2 mph 8 mph 93% 0 in 23.00 W/m2
06:24 60.4 °F 58.5 °F 29.9 in West 4 mph 7 mph 93% 0 in 32.00 W/m2
06:29 60.4 °F 58.5 °F 29.9 in West 2.9 mph 7 mph 93% 0 in 30.00 W/m2
06:34 60.4 °F 58.5 °F 29.9 in West 4.9 mph 6 mph 93% 0 in 37.00 W/m2
06:39 60.3 °F 58.3 °F 29.9 in West 0.9 mph 5 mph 93% 0 in 39.00 W/m2
06:44 60.3 °F 58.3 °F 29.9 in Calm   3 mph 93% 0 in 47.00 W/m2
06:49 60.3 °F 58.3 °F 29.9 in West 2.9 mph 5 mph 93% 0 in 62.00 W/m2
06:54 60.3 °F 58.3 °F 29.9 in Calm   2 mph 93% 0 in 72.00 W/m2
06:59 60.3 °F 58.3 °F 29.9 in West 0.9 mph 1 mph 93% 0 in 93.00 W/m2
07:04 60.4 °F 58.5 °F 29.9 in West 2 mph 4 mph 93% 0 in 102.00 W/m2
07:09 60.4 °F 58.5 °F 29.9 in West 0.9 mph 4 mph 93% 0 in 123.00 W/m2
07:14 60.6 °F 58.6 °F 30 in West 0.9 mph 3 mph 93% 0 in 142.00 W/m2
07:19 60.8 °F 58.8 °F 30 in West 2 mph 3 mph 93% 0 in 139.00 W/m2
07:24 60.8 °F 58.8 °F 30 in Calm   2 mph 93% 0 in 107.00 W/m2
07:29 61 °F 59 °F 30 in West 0.9 mph 2 mph 93% 0 in 218.00 W/m2
07:34 61.2 °F 59.2 °F 30 in West 2 mph 4 mph 93% 0 in 134.00 W/m2
07:39 61.5 °F 59.5 °F 30 in West 4 mph 7 mph 93% 0 in 320.00 W/m2
07:44 61.7 °F 59.7 °F 30 in WNW 2 mph 6 mph 93% 0 in 197.00 W/m2
07:49 62.1 °F 59.7 °F 30 in NW 9 mph 9 mph 92% 0 in 181.00 W/m2
07:54 62.1 °F 59.7 °F 30 in Calm   6 mph 92% 0 in 158.00 W/m2
07:59 62.2 °F 59.5 °F 30 in West 4.9 mph 5 mph 91% 0 in 142.00 W/m2
08:04 62.1 °F 59.2 °F 30 in NW 6.9 mph 9 mph 90% 0 in 338.00 W/m2
08:09 62.2 °F 58.6 °F 30 in WNW 4 mph 9 mph 88% 0 in 246.00 W/m2
08:14 62.8 °F 58.5 °F 30 in WNW 4 mph 6 mph 86% 0 in 311.00 W/m2
08:19 63.1 °F 58.3 °F 30 in NW 2.9 mph 7 mph 84% 0 in 330.00 W/m2
08:24 63.7 °F 58.5 °F 30 in NW 4.9 mph 7 mph 83% 0 in 345.00 W/m2
08:29 63.7 °F 57.7 °F 30 in NW 4 mph 9 mph 81% 0 in 359.00 W/m2
08:34 64 °F 57.7 °F 30 in NW 6 mph 7 mph 80% 0 in 374.00 W/m2
08:39 64.6 °F 57.6 °F 30 in NNW 0.9 mph 6 mph 78% 0 in 399.00 W/m2
08:44 65.1 °F 57.7 °F 30 in North 8 mph 8 mph 77% 0 in 424.00 W/m2
08:49 64.9 °F 56.8 °F 30 in WNW 4.9 mph 9 mph 75% 0 in 429.00 W/m2
08:54 65.3 °F 56.8 °F 30 in North 0.9 mph 8 mph 74% 0 in 438.00 W/m2
08:59 65.7 °F 56.8 °F 30 in NW 2.9 mph 10 mph 73% 0 in 448.00 W/m2
09:04 65.8 °F 56.5 °F 30 in NNW 6 mph 9 mph 72% 0 in 457.00 W/m2
09:09 66.6 °F 57.2 °F 30 in North 6 mph 6 mph 72% 0 in 483.00 W/m2
09:14 66 °F 56.3 °F 30 in North 6 mph 7 mph 71% 0 in 499.00 W/m2
09:19 66.2 °F 55.8 °F 30 in NW 4.9 mph 10 mph 69% 0 in 473.00 W/m2
09:24 66.4 °F 56.3 °F 30 in NNW 4 mph 9 mph 70% 0.01 in 570.00 W/m2
09:29 66.2 °F 56.1 °F 30 in North 6.9 mph 8 mph 70% 0.01 in 548.00 W/m2
09:34 66.9 °F 56.5 °F 30 in North 2 mph 7 mph 69% 0.01 in 568.00 W/m2
09:39 67.1 °F 55.8 °F 30 in North 6 mph 12 mph 67% 0.01 in 591.00 W/m2
09:44 67.5 °F 56.1 °F 30 in NW 2 mph 8 mph 67% 0.01 in 183.00 W/m2
09:49 67.3 °F 55.9 °F 30 in North 4.9 mph 8 mph 67% 0.01 in 682.00 W/m2
09:54 67.3 °F 55.6 °F 30 in NW 4 mph 8 mph 66% 0.01 in 139.00 W/m2
09:59 67.1 °F 55.4 °F 30 in NW 6 mph 8 mph 66% 0.01 in 645.00 W/m2
10:04 67.5 °F 55.8 °F 30 in NW 8.1 mph 10 mph 66% 0.01 in 628.00 W/m2
10:09 67.8 °F 55.6 °F 30 in NNW 8.9 mph 12 mph 65% 0.01 in 649.00 W/m2
10:14 68 °F 55.4 °F 30 in Calm   9 mph 64% 0.01 in 700.00 W/m2
10:19 68.4 °F 55.8 °F 30 in NW 2.9 mph 11 mph 64% 0.01 in 814.00 W/m2
10:24 68.4 °F 55.8 °F 30 in WNW 6 mph 13 mph 64% 0 in 209.00 W/m2
10:29 67.6 °F 55.9 °F 30 in NNW 2 mph 11 mph 66% 0 in 167.00 W/m2
10:34 68.2 °F 56.3 °F 30 in WNW 4 mph 8 mph 66% 0 in 747.00 W/m2
10:39 68.7 °F 56.5 °F 30 in WNW 6.9 mph 9 mph 65% 0 in 789.00 W/m2
10:44 68.5 °F 56.3 °F 30 in NW 8.9 mph 9 mph 65% 0 in 169.00 W/m2
10:49 68.7 °F 57.4 °F 30 in West 4 mph 11 mph 67% 0 in 763.00 W/m2
10:54 69.6 °F 57.4 °F 30 in NNW 6 mph 9 mph 65% 0 in 865.00 W/m2
10:59 69.4 °F 57.6 °F 30 in NW 4.9 mph 9 mph 66% 0 in 777.00 W/m2
11:04 68.7 °F 57.4 °F 30 in NW 2.9 mph 11 mph 67% 0 in 376.00 W/m2
11:09 69.3 °F 57.9 °F 30 in NW 4.9 mph 8 mph 67% 0 in 309.00 W/m2
11:14 69.3 °F 58.3 °F 30 in NNE 6 mph 7 mph 68% 0 in 990.00 W/m2
11:19 69.6 °F 58.1 °F 30 in NW 4.9 mph 7 mph 67% 0 in 997.00 W/m2
11:24 69.1 °F 57.7 °F 30 in NNW 2.9 mph 10 mph 67% 0 in 828.00 W/m2
11:29 70 °F 58.5 °F 30 in NW 4.9 mph 6 mph 67% 0 in 991.00 W/m2
11:34 70.2 °F 58.6 °F 30 in WNW 4.9 mph 9 mph 67% 0 in 255.00 W/m2
11:39 69.3 °F 58.3 °F 30 in NW 8.1 mph 8 mph 68% 0 in 816.00 W/m2
11:44 69.8 °F 58.3 °F 30 in NNW 0.9 mph 10 mph 67% 0 in 884.00 W/m2
11:49 70.2 °F 57.9 °F 30 in WNW 4.9 mph 9 mph 65% 0 in 923.00 W/m2
11:54 69.4 °F 57.6 °F 30 in West 2.9 mph 7 mph 66% 0 in 248.00 W/m2
11:59 69.4 °F 57.9 °F 30 in WNW 6.9 mph 8 mph 67% 0 in 287.00 W/m2
12:04 70.2 °F 57.9 °F 30 in NW 4 mph 10 mph 65% 0 in 422.00 W/m2
12:09 70.2 °F 58.3 °F 30 in North 4.9 mph 12 mph 66% 0 in 221.00 W/m2
12:14 69.8 °F 57.6 °F 30 in NNE 4.9 mph 9 mph 65% 0 in 171.00 W/m2
12:19 70.2 °F 58.3 °F 30 in WNW 6 mph 10 mph 66% 0 in 898.00 W/m2
12:24 70.9 °F 58.5 °F 30 in West 4.9 mph 9 mph 65% 0 in 940.00 W/m2
12:29 71.1 °F 58.3 °F 30 in Calm   6 mph 64% 0 in 705.00 W/m2
12:34 71.4 °F 56.8 °F 30 in WNW 2.9 mph 11 mph 60% 0 in 371.00 W/m2
12:39 71.1 °F 56.8 °F 30 in NW 4.9 mph 8 mph 61% 0 in 329.00 W/m2
12:44 71.1 °F 57.4 °F 30 in NNW 6 mph 11 mph 62% 0 in 313.00 W/m2
12:49 70.5 °F 56.8 °F 30 in North 15 mph 15 mph 62% 0 in 216.00 W/m2
12:54 70.5 °F 57.4 °F 30 in NW 4.9 mph 9 mph 63% 0 in 237.00 W/m2
12:59 70.7 °F 57 °F 30 in NW 10.1 mph 10 mph 62% 0 in 933.00 W/m2
13:04 71.4 °F 57.2 °F 30 in West 6.9 mph 11 mph 61% 0 in 851.00 W/m2
13:09 72.3 °F 56.7 °F 30 in WNW 8.1 mph 11 mph 58% 0 in 884.00 W/m2
13:14 72.5 °F 57.4 °F 30 in West 4.9 mph 7 mph 59% 0 in 954.00 W/m2
13:19 74.1 °F 56.5 °F 30 in NW 2 mph 7 mph 54% 0 in 923.00 W/m2
13:24 73.8 °F 55.6 °F 30 in WNW 10.1 mph 12 mph 53% 0 in 360.00 W/m2
13:29 72.9 °F 55.2 °F 30 in NW 2.9 mph 11 mph 54% 0 in 246.00 W/m2
13:34 73.2 °F 56.7 °F 30 in North 10.1 mph 13 mph 56% 0 in 933.00 W/m2
13:39 73.8 °F 55.6 °F 30 in West 6.9 mph 9 mph 53% 0 in 339.00 W/m2
13:44 73.9 °F 57.2 °F 30 in Calm   7 mph 56% 0 in 313.00 W/m2
13:49 73.6 °F 56.8 °F 30 in WNW 2 mph 9 mph 56% 0 in 199.00 W/m2
13:54 73 °F 55.9 °F 30 in NW 6 mph 8 mph 55% 0 in 322.00 W/m2
13:59 73.2 °F 56.7 °F 30 in WNW 2.9 mph 12 mph 56% 0 in 682.00 W/m2
14:04 73.4 °F 55.8 °F 30 in NW 2 mph 12 mph 54% 0 in 364.00 W/m2
14:09 73.8 °F 56.1 °F 30 in NW 4 mph 13 mph 54% 0 in 875.00 W/m2
14:14 73.9 °F 55.8 °F 30 in NW 2.9 mph 9 mph 53% 0 in 174.00 W/m2
14:19 74.3 °F 56.7 °F 30 in North 8.9 mph 10 mph 54% 0 in 911.00 W/m2
14:24 74.5 °F 55.8 °F 30 in NNW 0.9 mph 10 mph 52% 0 in 1023.00 W/m2
14:29 74.3 °F 55.6 °F 30 in NW 6 mph 14 mph 52% 0 in 223.00 W/m2
14:34 74.7 °F 57.4 °F 30 in NNE 14.1 mph 14 mph 55% 0 in 868.00 W/m2
14:39 75.4 °F 57 °F 30 in NNW 4 mph 9 mph 53% 0 in 881.00 W/m2
14:44 74.5 °F 56.3 °F 30 in NNE 8.1 mph 12 mph 53% 0 in 967.00 W/m2
14:49 73.4 °F 56.7 °F 30 in NNW 10.1 mph 13 mph 56% 0 in 271.00 W/m2
14:54 73.2 °F 57 °F 30 in WNW 6.9 mph 11 mph 57% 0 in 246.00 W/m2
14:59 73.2 °F 56.7 °F 30 in WNW 2 mph 8 mph 56% 0 in 244.00 W/m2
15:04 72.9 °F 56.3 °F 30 in NW 2 mph 9 mph 56% 0 in 171.00 W/m2
15:09 72.5 °F 56.5 °F 30 in NNW 6 mph 9 mph 57% 0 in 332.00 W/m2
15:14 72.9 °F 56.7 °F 30 in NNW 2 mph 8 mph 57% 0 in 327.00 W/m2
15:19 72.9 °F 56.3 °F 30 in NNE 4.9 mph 10 mph 56% 0 in 186.00 W/m2
15:24 72.9 °F 56.3 °F 30 in NNW 2.9 mph 8 mph 56% 0 in 223.00 W/m2
15:29 73 °F 56.5 °F 30 in NW 6 mph 10 mph 56% 0 in 800.00 W/m2
15:34 73.9 °F 56.8 °F 30 in NNW 4.9 mph 11 mph 55% 0 in 784.00 W/m2
15:39 74.1 °F 56.5 °F 30 in NW 10.1 mph 12 mph 54% 0 in 782.00 W/m2
15:44 74.1 °F 56.5 °F 30 in NNW 4.9 mph 12 mph 54% 0 in 798.00 W/m2
15:49 74.5 °F 56.7 °F 30 in NW 4.9 mph 12 mph 54% 0 in 761.00 W/m2
15:54 73.9 °F 56.3 °F 30 in Calm   12 mph 54% 0 in 768.00 W/m2
15:59 75.2 °F 57.4 °F 30 in NW 6 mph 15 mph 54% 0 in 793.00 W/m2
16:04 74.8 °F 57 °F 30 in NNW 2.9 mph 9 mph 54% 0 in 840.00 W/m2
16:09 75 °F 56.1 °F 30 in NNW 4 mph 13 mph 52% 0 in 749.00 W/m2
16:14 74.3 °F 55.6 °F 30 in WNW 4 mph 11 mph 52% 0 in 155.00 W/m2
16:19 73.8 °F 56.1 °F 30 in WNW 6 mph 10 mph 54% 0 in 185.00 W/m2
16:24 74.1 °F 56.8 °F 30 in West 2 mph 12 mph 55% 0 in 199.00 W/m2
16:29 74.7 °F 57.4 °F 30 in NNE 4 mph 6 mph 55% 0 in 788.00 W/m2
16:34 75.4 °F 57.6 °F 30 in NW 8.9 mph 12 mph 54% 0 in 733.00 W/m2
16:39 75.4 °F 57 °F 30 in NW 10.1 mph 12 mph 53% 0 in 765.00 W/m2
16:44 75.2 °F 56.8 °F 30 in WNW 6 mph 11 mph 53% 0 in 737.00 W/m2
16:49 74.1 °F 56.8 °F 30 in North 12 mph 12 mph 55% 0 in 197.00 W/m2
16:54 73.8 °F 57.6 °F 30 in WNW 4 mph 15 mph 57% 0 in 714.00 W/m2
16:59 74.3 °F 57.6 °F 30 in WNW 14.1 mph 14 mph 56% 0 in 661.00 W/m2
17:04 74.7 °F 57.9 °F 30 in NW 6.9 mph 11 mph 56% 0 in 642.00 W/m2
17:09 74.8 °F 57.6 °F 30 in North 11 mph 12 mph 55% 0 in 613.00 W/m2
17:14 74.7 °F 57.9 °F 30 in North 6 mph 15 mph 56% 0 in 591.00 W/m2
17:19 74.5 °F 57.7 °F 30 in NNW 10.1 mph 10 mph 56% 0 in 571.00 W/m2
17:24 74.3 °F 57.6 °F 30 in NNE 8.1 mph 9 mph 56% 0 in 554.00 W/m2
17:29 74.3 °F 57 °F 30 in NNW 2.9 mph 11 mph 55% 0 in 559.00 W/m2
17:34 73.9 °F 57.2 °F 30 in WNW 8.1 mph 11 mph 56% 0 in 74.00 W/m2
17:39 72.5 °F 56.8 °F 30 in NNW 2 mph 10 mph 58% 0 in 91.00 W/m2
17:44 72.5 °F 56.8 °F 30 in NW 10.1 mph 10 mph 58% 0 in 517.00 W/m2
17:49 73 °F 56.8 °F 30 in NNW 4 mph 11 mph 57% 0 in 494.00 W/m2
17:54 73.4 °F 56.7 °F 30 in NW 6.9 mph 12 mph 56% 0 in 462.00 W/m2
17:59 73.6 °F 57.4 °F 30 in NW 8.9 mph 13 mph 57% 0 in 459.00 W/m2
18:04 74.3 °F 58.1 °F 30 in NW 8.1 mph 9 mph 57% 0 in 441.00 W/m2
18:09 74.3 °F 57.6 °F 30 in NNW 6 mph 9 mph 56% 0 in 427.00 W/m2
18:14 74.1 °F 56.8 °F 30 in NW 4.9 mph 15 mph 55% 0 in 413.00 W/m2
18:19 73.9 °F 57.2 °F 30 in NW 2.9 mph 9 mph 56% 0 in 403.00 W/m2
18:24 73.4 °F 56.7 °F 30 in North 4 mph 7 mph 56% 0 in 81.00 W/m2
18:29 72.5 °F 56.8 °F 30 in North 2 mph 12 mph 58% 0 in 404.00 W/m2
18:34 73 °F 56.8 °F 30 in NNW 8.1 mph 12 mph 57% 0 in 417.00 W/m2
18:39 73.2 °F 57 °F 30 in NW 2.9 mph 10 mph 57% 0 in 390.00 W/m2
18:44 73.4 °F 57.2 °F 30 in North 8.9 mph 12 mph 57% 0 in 367.00 W/m2
18:49 73 °F 57.4 °F 30 in NNW 6.9 mph 15 mph 58% 0 in 95.00 W/m2
18:54 72 °F 57.4 °F 30 in North 2.9 mph 11 mph 60% 0 in 83.00 W/m2
18:59 71.8 °F 57.6 °F 30.1 in NNW 4 mph 13 mph 61% 0 in 83.00 W/m2
19:04 71.8 °F 57.6 °F 30.1 in NW 4.9 mph 6 mph 61% 0 in 105.00 W/m2
19:09 71.6 °F 57.9 °F 30.1 in NNW 4 mph 11 mph 62% 0 in 98.00 W/m2
19:14 71.2 °F 57.9 °F 30.1 in NNW 6.9 mph 12 mph 63% 0 in 132.00 W/m2
19:19 71.4 °F 58.1 °F 30.1 in NNE 6 mph 12 mph 63% 0 in 262.00 W/m2
19:24 72.1 °F 58.8 °F 30.1 in NNW 0.9 mph 7 mph 63% 0 in 244.00 W/m2
19:29 71.8 °F 58.5 °F 30.1 in North 2 mph 13 mph 63% 0 in 236.00 W/m2
19:34 71.8 °F 58.5 °F 30.1 in NNW 8.9 mph 12 mph 63% 0 in 258.00 W/m2
19:39 72 °F 58.6 °F 30.1 in North 0.9 mph 7 mph 63% 0 in 250.00 W/m2
19:44 71.6 °F 58.3 °F 30.1 in NE 8.1 mph 11 mph 63% 0 in 220.00 W/m2
19:49 71.4 °F 58.6 °F 30.1 in NNE 2.9 mph 7 mph 64% 0 in 139.00 W/m2
19:54 71.1 °F 58.6 °F 30.1 in NW 4.9 mph 12 mph 65% 0 in 137.00 W/m2
19:59 70.7 °F 58.3 °F 30.1 in North 8.1 mph 13 mph 65% 0 in 63.00 W/m2
20:04 70.2 °F 58.3 °F 30.1 in NNW 4 mph 9 mph 66% 0 in 63.00 W/m2
20:09 69.6 °F 57.7 °F 30.1 in NNE 4.9 mph 9 mph 66% 0 in 114.00 W/m2
20:14 69.8 °F 57.9 °F 30.1 in North 2.9 mph 6 mph 66% 0 in 107.00 W/m2
20:19 70.2 °F 58.3 °F 30.1 in NE 4.9 mph 8 mph 66% 0 in 72.00 W/m2
20:24 69.8 °F 57.9 °F 30.1 in North 2.9 mph 7 mph 66% 0 in 60.00 W/m2
20:29 69.4 °F 57.9 °F 30.1 in Calm   4 mph 67% 0 in 44.00 W/m2
20:34 69.1 °F 57.7 °F 30.1 in North 4 mph 10 mph 67% 0 in 37.00 W/m2
20:39 68.9 °F 57.9 °F 30.1 in NW 2.9 mph 9 mph 68% 0 in 44.00 W/m2
20:44 68.7 °F 57.7 °F 30.1 in WNW 2.9 mph 9 mph 68% 0 in 25.00 W/m2
20:49 68.5 °F 57.6 °F 30.1 in North 2.9 mph 7 mph 68% 0 in 18.00 W/m2
20:54 68.5 °F 57.6 °F 30.1 in NW 6.9 mph 7 mph 68% 0 in 16.00 W/m2
20:59 68 °F 57.4 °F 30.1 in WNW 2.9 mph 5 mph 69% 0 in 16.00 W/m2
21:04 67.8 °F 57.2 °F 30.1 in NNW 4 mph 8 mph 69% 0 in 16.00 W/m2
21:09 67.3 °F 56.8 °F 30.1 in NNW 2.9 mph 10 mph 69% 0 in 12.00 W/m2
21:14 67.1 °F 56.7 °F 30.1 in NW 12 mph 12 mph 69% 0 in 7.00 W/m2
21:19 66.7 °F 56.3 °F 30.1 in NW 6 mph 9 mph 69% 0 in 0.00 W/m2
21:24 66.4 °F 56.3 °F 30.1 in NNW 4.9 mph 9 mph 70% 0 in 0.00 W/m2
21:29 66.2 °F 56.1 °F 30.1 in West 4 mph 6 mph 70% 0 in 0.00 W/m2
21:34 65.8 °F 55.8 °F 30.1 in WNW 2 mph 7 mph 70% 0 in 0.00 W/m2
21:39 65.7 °F 55.9 °F 30.1 in Calm   4 mph 71% 0 in 0.00 W/m2
21:44 65.3 °F 55.6 °F 30.1 in WNW 0.9 mph 4 mph 71% 0 in 0.00 W/m2
21:49 64.9 °F 55.4 °F 30.1 in NW 2 mph 8 mph 71% 0 in 0.00 W/m2
21:54 64.6 °F 55 °F 30.1 in Calm   3 mph 71% 0 in 0.00 W/m2
21:59 64.4 °F 55.2 °F 30.1 in NW 2 mph 4 mph 72% 0 in 0.00 W/m2
22:04 64.2 °F 55 °F 30.1 in NW 2 mph 4 mph 72% 0 in 0.00 W/m2
22:09 64 °F 54.9 °F 30.1 in NW 0.9 mph 2 mph 72% 0 in 0.00 W/m2
22:14 63.9 °F 55 °F 30.1 in West 2.9 mph 3 mph 73% 0 in 0.00 W/m2
22:19 63.7 °F 54.9 °F 30.1 in West 2.9 mph 3 mph 73% 0 in 0.00 W/m2
22:24 63.5 °F 54.7 °F 30.1 in Calm   3 mph 73% 0 in 0.00 W/m2
22:29 63.3 °F 54.5 °F 30.1 in Calm   2 mph 73% 0 in 0.00 W/m2
22:34 63.3 °F 54.5 °F 30.1 in West 4 mph 4 mph 73% 0 in 0.00 W/m2
22:39 63.1 °F 54.3 °F 30.1 in West 0.9 mph 4 mph 73% 0 in 0.00 W/m2
22:44 62.6 °F 54.1 °F 30.1 in West 0.9 mph 4 mph 74% 0 in 0.00 W/m2
22:49 62.4 °F 54 °F 30.1 in West 2 mph 6 mph 74% 0 in 0.00 W/m2
22:54 62.2 °F 53.8 °F 30.1 in West 0.9 mph 4 mph 74% 0 in 0.00 W/m2
22:59 61.9 °F 53.4 °F 30.1 in West 2 mph 5 mph 74% 0 in 0.00 W/m2
23:04 61.7 °F 53.2 °F 30.1 in West 2 mph 6 mph 74% 0 in 0.00 W/m2
23:09 61.5 °F 53.6 °F 30.1 in West 2.9 mph 5 mph 75% 0 in 0.00 W/m2
23:14 61.5 °F 53.6 °F 30.1 in Calm   1 mph 75% 0 in 0.00 W/m2
23:19 61.3 °F 53.4 °F 30.1 in Calm   1 mph 75% 0 in 0.00 W/m2
23:24 61.2 °F 53.2 °F 30.2 in West 2 mph 2 mph 75% 0 in 0.00 W/m2
23:29 61 °F 53.1 °F 30.1 in Calm     75% 0 in 0.00 W/m2
23:34 60.8 °F 52.9 °F 30.2 in Calm   3 mph 75% 0 in 0.00 W/m2
23:39 60.8 °F 52.9 °F 30.2 in WNW 2 mph 2 mph 75% 0 in 0.00 W/m2
23:44 60.6 °F 53.1 °F 30.2 in WNW 0.9 mph 2 mph 76% 0 in 0.00 W/m2
23:49 60.6 °F 53.1 °F 30.2 in Calm   2 mph 76% 0 in 0.00 W/m2
23:54 60.4 °F 52.9 °F 30.2 in Calm     76% 0 in 0.00 W/m2
23:59 60.3 °F 52.7 °F 30.2 in Calm     76% 0 in 0.00 W/m2